KAXN

Chandler Field Airport

Alexandria, Minnesota, USA
METAR KAXN 251853Z AUTO 29011KT 7SM -RA FEW012 BKN033 OVC055 10/07 A3001 RMK AO2 RAB08 SLP170 P0002 T01000067
Observed Flight Rules
Sep-25 @ 18:53 UTC (10 minutes ago) Visual Flight Rules
Wind Visibility Clouds Conditions
290° at 11 knots 7 miles
  • Few at 1,200' AGL
  • Broken at 3,300' AGL
  • Overcast at 5,500' AGL
  • Light Rain
Temperatures Readings Precipitation
Current 10°C / 50°F
Dewpoint 7°C / 45°F
Humidity 82%
Altimeter 30.01" Hg
Pressure 1017 hPa
Elevation 433
Current Rain 0.02
METAR KAXN 251853Z AUTO 29011KT 7SM -RA FEW012 BKN033 OVC055 10/07 A3001 RMK AO2 RAB08 SLP170 P0002 T01000067
Observed Flight Rules
Sep-25 @ 18:53 UTC
(10 minutes ago)
VFR
Wind Visibility
290° at 11 knots 7 miles
Clouds
  • Few at 1,200' AGL
  • Broken at 3,300' AGL
  • Overcast at 5,500' AGL
Conditions
  • Light Rain
Temperature Dewpoint
10°C / 50°F 7°C / 45°F
Humidity Altimeter Pressure
82% 30.01" Hg 1017 hPa
Current Rain
0.02